createdAt,value
2019-01-26T00:04:30.509Z,72.54
2019-01-26T00:14:31.981Z,71.91
2019-01-26T00:24:33.417Z,71.89
2019-01-26T00:34:35.774Z,71.39
2019-01-26T00:44:37.278Z,71.15
2019-01-26T00:54:38.821Z,71.28
2019-01-26T01:04:40.284Z,70.87
2019-01-26T01:14:41.863Z,70.37
2019-01-26T01:24:43.296Z,70.33
2019-01-26T01:34:44.811Z,70.67
2019-01-26T01:44:46.329Z,70.93
2019-01-26T01:54:47.801Z,70.55
2019-01-26T02:04:49.242Z,70.39
2019-01-26T02:14:50.763Z,69.59
2019-01-26T02:24:52.234Z,69.08
2019-01-26T02:34:53.766Z,68.60
2019-01-26T02:44:55.293Z,68.50
2019-01-26T02:54:56.725Z,68.25
2019-01-26T03:04:58.158Z,69.33
2019-01-26T03:14:59.648Z,69.25
2019-01-26T03:25:01.206Z,68.35
2019-01-26T03:35:05.674Z,68.92
2019-01-26T03:45:11.661Z,67.91
2019-01-26T03:55:19.569Z,68.25
2019-01-26T04:05:21.603Z,67.98
2019-01-26T04:15:23.101Z,67.69
2019-01-26T04:25:24.544Z,67.30
2019-01-26T04:35:26.014Z,67.36
2019-01-26T04:45:27.597Z,67.09
2019-01-26T04:55:29.131Z,66.26
2019-01-26T05:05:30.564Z,65.65
2019-01-26T05:15:32.037Z,65.54
2019-01-26T05:25:33.603Z,64.38
2019-01-26T05:35:35.088Z,63.82
2019-01-26T05:45:36.730Z,63.33
2019-01-26T05:55:38.242Z,63.63
2019-01-26T06:05:39.672Z,62.88
2019-01-26T06:15:41.358Z,62.49
2019-01-26T06:25:42.864Z,62.68
2019-01-26T06:35:44.377Z,62.96
2019-01-26T06:45:45.790Z,63.03
2019-01-26T06:55:47.224Z,62.35
2019-01-26T07:05:53.246Z,62.55
2019-01-26T07:15:56.525Z,62.20
2019-01-26T07:25:58.371Z,61.44
2019-01-26T07:35:59.881Z,61.67
2019-01-26T07:46:01.348Z,60.51
2019-01-26T07:56:03.584Z,60.44
2019-01-26T08:06:05.073Z,59.53
2019-01-26T08:16:15.783Z,60.79
2019-01-26T08:26:17.220Z,60.13
2019-01-26T08:36:18.712Z,59.59
2019-01-26T08:46:20.186Z,58.76
2019-01-26T08:56:21.616Z,58.20
2019-01-26T09:06:25.268Z,57.18
2019-01-26T09:16:27.080Z,57.93
2019-01-26T09:26:28.668Z,57.14
2019-01-26T09:36:30.258Z,52.90
2019-01-26T09:46:31.882Z,54.69
2019-01-26T09:56:33.415Z,51.54
2019-01-26T10:06:34.903Z,54.44
2019-01-26T10:16:36.636Z,56.63
2019-01-26T10:26:38.111Z,58.21
2019-01-26T10:36:41.473Z,64.31
2019-01-26T10:46:42.964Z,66.00
2019-01-26T10:56:44.702Z,67.52
2019-01-26T11:06:46.237Z,71.70
2019-01-26T11:16:47.856Z,74.86
2019-01-26T11:26:49.651Z,75.21
2019-01-26T11:36:51.216Z,75.05
2019-01-26T11:46:52.851Z,75.31
2019-01-26T11:56:54.333Z,75.16
2019-01-26T12:06:57.666Z,74.34
2019-01-26T12:16:59.140Z,72.83
2019-01-26T12:27:00.646Z,72.05
2019-01-26T12:37:02.439Z,71.54
2019-01-26T12:47:04.306Z,69.78
2019-01-26T12:57:06.053Z,68.12
2019-01-26T13:07:07.499Z,67.25
2019-01-26T13:17:09.585Z,66.06
2019-01-26T13:27:11.076Z,64.58
2019-01-26T13:37:12.610Z,64.69
2019-01-26T13:47:14.271Z,64.82
2019-01-26T13:57:15.713Z,64.86
2019-01-26T14:07:17.184Z,65.22
2019-01-26T14:17:18.732Z,68.75
2019-01-26T14:27:20.223Z,71.63
2019-01-26T14:37:21.724Z,72.52
2019-01-26T14:47:23.161Z,73.24
2019-01-26T14:57:24.726Z,72.93
2019-01-26T15:07:26.326Z,72.54
2019-01-26T15:17:27.812Z,72.63
2019-01-26T15:27:29.288Z,73.47
2019-01-26T15:37:31.229Z,73.86
2019-01-26T15:47:32.670Z,73.11
2019-01-26T15:57:34.218Z,72.84
2019-01-26T16:07:35.663Z,72.92
2019-01-26T16:17:37.096Z,72.89
2019-01-26T16:27:39.815Z,72.82
2019-01-26T16:37:41.320Z,73.29
2019-01-26T16:47:42.870Z,73.82
2019-01-26T16:57:44.753Z,72.98
2019-01-26T17:07:46.332Z,72.58
2019-01-26T17:17:47.752Z,71.81
2019-01-26T17:27:51.439Z,71.69
2019-01-26T17:37:53.110Z,71.43
2019-01-26T17:47:54.718Z,71.26
2019-01-26T17:57:56.151Z,71.40
2019-01-26T18:07:57.581Z,71.15
2019-01-26T18:17:59.087Z,71.45
2019-01-26T18:28:00.554Z,71.22
2019-01-26T18:38:02.435Z,71.18
2019-01-26T18:48:05.103Z,72.28
2019-01-26T18:58:06.946Z,72.23
2019-01-26T19:08:08.876Z,72.16
2019-01-26T19:18:10.466Z,72.08
2019-01-26T19:28:12.304Z,72.43
2019-01-26T19:38:13.843Z,71.82
2019-01-26T19:48:15.274Z,71.10
2019-01-26T19:58:16.765Z,71.13
2019-01-26T20:08:18.485Z,70.88
2019-01-26T20:11:56.739Z,71.11
2019-01-26T20:15:21.069Z,71.13
2019-01-26T20:18:42.498Z,71.11
2019-01-26T20:22:04.498Z,70.54
2019-01-26T20:25:25.987Z,70.45
2019-01-26T20:28:47.433Z,70.52
2019-01-26T20:32:08.969Z,70.60
2019-01-26T20:35:31.208Z,70.71
2019-01-26T20:38:52.884Z,70.60
2019-01-26T20:42:14.347Z,70.50
2019-01-26T20:45:36.004Z,70.44
2019-01-26T20:48:57.496Z,70.40
2019-01-26T20:52:21.809Z,70.43
2019-01-26T21:03:27.890Z,70.49
2019-01-26T21:13:29.610Z,70.33
2019-01-26T21:23:31.239Z,70.13
2019-01-26T21:33:32.668Z,69.81
2019-01-26T21:43:34.291Z,69.25
2019-01-26T21:53:35.776Z,68.87
2019-01-26T22:03:37.369Z,68.75
2019-01-26T22:13:38.908Z,68.68
2019-01-26T22:23:40.641Z,68.84
2019-01-26T22:33:42.104Z,68.79
2019-01-26T22:43:43.571Z,68.84
2019-01-26T22:53:45.166Z,68.58
2019-01-26T23:03:58.479Z,68.75
2019-01-26T23:14:37.490Z,68.39
2019-01-26T23:25:17.689Z,68.59
2019-01-26T23:35:19.421Z,68.64
2019-01-26T23:45:21.103Z,68.65
2019-01-26T23:55:22.609Z,68.57
